Location Glendale, AZ, US

ob KWR6634 232200Z AUTO 32000G02KT SKC 16/M05 A3017 RMK SLPNO 

2019.01.23 2200 UTC
Wind from the NW (321 degrees) at Calm MPH ( KT) gusting to 2.0 MPH (2 KT)
Visibility    Mile(s)
Sky Conditions  clear
Temperature 60.00 F (16 C)
Dew Point 22.12 F (-5 C)
Relative Humidity 23%
Pressure   30.17 in. Hg (1022 hPa)
Rain  0.00 in.
Daily Rain  in.

Station Name  My Glendale Arizona Weather Station
Longitude, Latitude  -112.20133199999998, 33.58645
Elevation 1180
Station URL www.myglendalewxs.com
Software Type VWS V15.00